Time;durP1;ratioP1;P1;durP2;ratioP2;P2;SDS_P1;SDS_P2;PMS_P1;PMS_P2;Temp;Humidity;BMP_temperature;BMP_pressure;BME280_temperature;BME280_humidity;BME280_pressure;Samples;Min_cycle;Max_cycle;Signal;HPM_P1;HPM_P2
2021/09/10 00:00:09;;;;;;;21.73;12.15;;;20.50;99.90;;;19.46;100.00;100127.69;5026718;28;20037;-68
2021/09/10 00:02:40;;;;;;;17.02;12.05;;;20.50;99.90;;;19.45;100.00;100128.75;5026435;28;20729;-68
2021/09/10 00:05:09;;;;;;;20.75;12.85;;;20.50;99.90;;;19.44;100.00;100124.34;5007247;28;20104;-68
2021/09/10 00:07:37;;;;;;;21.58;13.10;;;20.50;99.90;;;19.44;100.00;100132.63;5007396;28;20046;-68
2021/09/10 00:10:06;;;;;;;21.48;12.60;;;20.50;99.90;;;19.43;100.00;100130.94;5007210;28;20124;-68
2021/09/10 00:12:35;;;;;;;23.25;13.90;;;20.40;99.90;;;19.43;100.00;100127.34;5011072;28;20520;-68
2021/09/10 00:15:02;;;;;;;20.65;12.65;;;20.40;99.90;;;19.42;100.00;100123.78;5026811;28;20516;-68
2021/09/10 00:17:30;;;;;;;18.23;12.23;;;20.40;99.90;;;19.42;100.00;100117.38;5026907;28;20072;-68
2021/09/10 00:19:57;;;;;;;18.98;11.75;;;20.40;99.90;;;19.40;100.00;100128.72;5026858;28;20095;-68
2021/09/10 00:22:24;;;;;;;22.80;11.68;;;20.30;99.90;;;19.40;100.00;100125.09;5026834;28;20056;-68
2021/09/10 00:24:52;;;;;;;14.85;11.13;;;20.30;99.90;;;19.39;100.00;100127.03;5026388;28;20041;-68
2021/09/10 00:27:19;;;;;;;17.85;11.60;;;20.30;99.90;;;19.40;100.00;100130.59;5026806;28;20051;-68
2021/09/10 00:29:48;;;;;;;20.58;10.90;;;20.30;99.90;;;19.38;100.00;100130.88;5026837;28;20063;-68
2021/09/10 00:32:16;;;;;;;15.90;11.25;;;20.30;99.90;;;19.36;100.00;100126.69;5025155;28;20061;-68
2021/09/10 00:34:43;;;;;;;17.58;12.10;;;20.30;99.90;;;19.37;100.00;100128.38;5027429;28;20091;-68
2021/09/10 00:37:11;;;;;;;17.65;12.57;;;20.30;99.90;;;19.34;100.00;100130.56;5028929;28;20049;-68
2021/09/10 00:39:38;;;;;;;19.27;11.68;;;20.30;99.90;;;19.35;100.00;100134.13;5030212;28;20041;-68
2021/09/10 00:42:06;;;;;;;20.75;13.00;;;20.20;99.90;;;19.35;100.00;100136.91;5030186;28;20049;-68
2021/09/10 00:44:33;;;;;;;24.48;12.55;;;20.20;99.90;;;19.34;100.00;100135.22;5046296;28;20099;-68
2021/09/10 00:47:02;;;;;;;20.45;12.40;;;20.20;99.90;;;19.34;100.00;100135.22;5030400;28;20072;-68
2021/09/10 00:49:30;;;;;;;19.75;11.48;;;20.20;99.90;;;19.34;100.00;100132.44;5030272;28;20162;-68
2021/09/10 00:51:58;;;;;;;19.33;11.00;;;20.30;99.90;;;19.33;100.00;100134.38;5029883;28;20054;-68
2021/09/10 00:54:26;;;;;;;20.65;12.13;;;20.20;99.90;;;19.33;100.00;100128.03;5029787;28;20157;-68
2021/09/10 00:56:53;;;;;;;18.65;11.98;;;20.20;99.90;;;19.32;100.00;100129.13;5030132;28;20121;-68
2021/09/10 00:59:21;;;;;;;24.17;12.15;;;20.20;99.90;;;19.32;100.00;100129.13;5028521;28;20081;-68
2021/09/10 01:01:49;;;;;;;22.17;11.90;;;20.30;99.90;;;19.31;100.00;100127.47;5029710;28;20052;-68
2021/09/10 01:04:22;;;;;;;20.00;11.70;;;20.20;99.90;;;19.28;100.00;100114.16;5029965;28;20056;-68
2021/09/10 01:06:52;;;;;;;18.02;12.13;;;20.30;99.90;;;19.29;100.00;100121.34;5029878;28;20432;-68
2021/09/10 01:09:21;;;;;;;19.13;11.38;;;20.20;99.90;;;19.31;100.00;100127.47;5029911;28;20803;-68
2021/09/10 01:11:50;;;;;;;19.98;12.43;;;20.20;99.90;;;19.29;100.00;100126.88;5029569;28;20562;-69
2021/09/10 01:14:19;;;;;;;20.15;11.82;;;20.20;99.90;;;19.29;100.00;100130.47;5030788;28;20529;-68
2021/09/10 01:16:48;;;;;;;18.85;11.32;;;20.20;99.90;;;19.28;100.00;100131.53;5029383;28;20034;-68
2021/09/10 01:19:27;;;;;;;21.45;11.82;;;20.30;99.90;;;19.26;100.00;100130.97;5029630;28;20107;-68
2021/09/10 01:21:59;;;;;;;16.73;12.07;;;20.20;99.90;;;19.28;100.00;100130.72;5029207;28;20148;-68
2021/09/10 01:24:29;;;;;;;;;;;20.30;99.90;;;19.27;100.00;100137.34;5049405;28;20516;-68
2021/09/10 01:26:57;;;;;;;19.67;11.85;;;20.30;99.90;;;19.28;100.00;100141.75;5049065;28;19924;-68
2021/09/10 01:29:24;;;;;;;19.92;12.10;;;20.30;99.90;;;19.27;100.00;100137.34;5049299;28;20036;-68
2021/09/10 01:31:51;;;;;;;19.60;12.43;;;20.30;99.90;;;19.27;100.00;100131.81;5049118;28;20072;-68
2021/09/10 01:34:20;;;;;;;17.33;11.77;;;20.20;99.90;;;19.25;100.00;100132.06;5028742;28;20041;-69
2021/09/10 01:36:47;;;;;;;17.58;11.55;;;20.20;99.90;;;19.23;100.00;100134.25;5029320;28;20052;-68
2021/09/10 01:39:15;;;;;;;16.35;11.23;;;20.20;99.90;;;19.24;100.00;100135.88;5029161;28;20880;-68
2021/09/10 01:41:43;;;;;;;19.38;11.95;;;20.20;99.90;;;19.22;100.00;100137.25;5028798;28;20072;-68
2021/09/10 01:44:11;;;;;;;16.15;11.45;;;20.30;99.90;;;19.25;100.00;100136.75;5029432;28;20120;-68
2021/09/10 01:46:40;;;;;;;15.32;11.10;;;20.20;99.90;;;19.24;100.00;100132.31;5043797;28;20509;-68
2021/09/10 01:49:07;;;;;;;17.85;11.45;;;20.20;99.90;;;19.25;100.00;100128.47;5029055;28;20120;-68
2021/09/10 01:51:36;;;;;;;16.38;10.95;;;20.20;99.90;;;19.26;100.00;100138.41;5028717;28;20041;-68
2021/09/10 01:54:04;;;;;;;17.00;11.98;;;20.30;99.90;;;19.25;100.00;100136.75;5028722;28;20045;-68
2021/09/10 01:56:32;;;;;;;16.13;11.25;;;20.30;99.90;;;19.25;100.00;100136.75;5028809;28;20419;-68
2021/09/10 01:59:01;;;;;;;18.75;12.40;;;20.30;99.90;;;19.26;100.00;100132.88;5028827;28;20783;-68
2021/09/10 02:01:30;;;;;;;18.98;11.75;;;20.30;99.90;;;19.25;100.00;100134.00;5028506;28;20437;-68
2021/09/10 02:03:59;;;;;;;19.23;11.98;;;20.30;99.90;;;19.28;100.00;100130.72;5029031;28;20460;-68
2021/09/10 02:06:26;;;;;;;20.95;11.90;;;20.30;99.90;;;19.27;100.00;100135.41;5028914;28;20505;-68
2021/09/10 02:08:54;;;;;;;24.20;12.73;;;20.40;99.90;;;19.28;100.00;100137.06;5028891;28;20054;-68
2021/09/10 02:11:21;;;;;;;18.90;11.65;;;20.40;99.90;;;19.27;100.00;100132.63;5028561;28;20045;-68
2021/09/10 02:13:49;;;;;;;19.42;11.88;;;20.30;99.90;;;19.27;100.00;100129.06;5030395;28;20103;-68
2021/09/10 02:16:17;;;;;;;20.73;12.90;;;20.40;99.90;;;19.28;100.00;100128.78;5029041;28;20133;-68
2021/09/10 02:18:45;;;;;;;20.15;12.07;;;20.30;99.90;;;19.26;100.00;100130.97;5028762;28;20087;-68
2021/09/10 02:21:12;;;;;;;15.75;11.18;;;20.30;99.90;;;19.27;100.00;100134.56;5028975;28;20130;-68
2021/09/10 02:23:40;;;;;;;20.55;11.80;;;20.30;99.90;;;19.26;100.00;100135.66;5029125;28;20046;-68
2021/09/10 02:26:07;;;;;;;18.60;11.23;;;20.30;99.90;;;19.25;100.00;100131.22;5028820;28;20098;-68
2021/09/10 02:28:34;;;;;;;16.08;10.73;;;20.20;99.90;;;19.23;100.00;100130.63;5028901;28;20125;-68
2021/09/10 02:31:02;;;;;;;18.60;11.23;;;20.20;99.90;;;19.22;100.00;100131.72;5028212;28;20053;-68
2021/09/10 02:33:30;;;;;;;14.98;11.00;;;20.20;99.90;;;19.22;100.00;100126.22;5028897;28;20137;-68
2021/09/10 02:35:58;;;;;;;22.17;11.88;;;20.20;99.90;;;19.19;100.00;100126.69;5028557;28;20041;-68
2021/09/10 02:38:26;;;;;;;21.83;11.52;;;20.10;99.90;;;19.20;100.00;100129.22;5028229;28;20127;-68
2021/09/10 02:40:54;;;;;;;16.13;11.23;;;20.10;99.90;;;19.20;100.00;100128.38;5028302;28;20041;-68
2021/09/10 02:43:21;;;;;;;17.02;10.75;;;20.10;99.90;;;19.17;100.00;100123.34;5027980;28;20120;-68
2021/09/10 02:45:49;;;;;;;20.33;12.13;;;20.10;99.90;;;19.16;100.00;100117.00;5031414;28;20045;-68
2021/09/10 02:48:16;;;;;;;20.38;12.00;;;20.00;99.90;;;19.13;100.00;100123.03;5028333;28;20072;-68
2021/09/10 02:50:45;;;;;;;17.38;11.20;;;20.00;99.90;;;19.13;100.00;100112.84;5028004;28;20045;-68
2021/09/10 02:53:12;;;;;;;18.70;12.00;;;20.00;99.90;;;19.11;100.00;100114.16;5028887;28;20049;-68
2021/09/10 02:55:41;;;;;;;21.60;11.18;;;20.00;99.90;;;19.11;100.00;100111.41;5028054;28;20041;-68
2021/09/10 02:58:08;;;;;;;20.65;11.02;;;20.00;99.90;;;19.10;100.00;100107.81;5027972;28;20048;-68
2021/09/10 03:00:36;;;;;;;16.85;10.45;;;19.90;99.90;;;19.06;100.00;100109.41;5027146;28;20057;-68
2021/09/10 03:03:04;;;;;;;17.80;11.63;;;19.90;99.90;;;19.06;100.00;100106.66;5028699;28;20528;-68
2021/09/10 03:05:32;;;;;;;19.67;12.18;;;19.90;99.90;;;19.03;100.00;100107.13;5027755;28;20050;-68
2021/09/10 03:08:01;;;;;;;20.17;11.23;;;19.90;99.90;;;19.01;100.00;100101.03;5027886;28;20119;-68
2021/09/10 03:10:29;;;;;;;19.17;11.02;;;19.90;99.90;;;19.00;100.00;100107.66;5027955;28;20124;-68
2021/09/10 03:12:56;;;;;;;20.30;11.88;;;19.90;99.90;;;19.01;100.00;100101.03;5027663;28;20587;-68
2021/09/10 03:15:23;;;;;;;20.50;12.50;;;19.80;99.90;;;19.02;100.00;100102.72;5026121;28;20469;-68
2021/09/10 03:17:51;;;;;;;19.73;11.85;;;19.80;99.90;;;19.00;100.00;100102.16;5027765;28;20045;-68
2021/09/10 03:20:18;;;;;;;16.80;10.93;;;19.80;99.90;;;19.01;100.00;100101.03;5026276;28;20049;-68
2021/09/10 03:22:45;;;;;;;16.15;11.15;;;19.80;99.90;;;18.98;100.00;100098.78;5028006;28;20073;-68
2021/09/10 03:25:14;;;;;;;17.65;11.23;;;19.70;99.90;;;18.96;100.00;100100.94;5037003;28;20685;-68
2021/09/10 03:27:42;;;;;;;17.02;10.57;;;19.70;99.90;;;18.93;100.00;100101.47;5047610;28;20401;-68
2021/09/10 03:30:12;;;;;;;17.35;11.02;;;19.70;99.90;;;18.92;100.00;100099.78;5047395;28;20044;-68
2021/09/10 03:32:39;;;;;;;20.63;11.93;;;19.70;99.90;;;18.93;100.00;100102.28;5043655;28;20080;-68
2021/09/10 03:35:08;;;;;;;18.42;12.07;;;19.70;99.90;;;18.90;100.00;100102.78;5027257;28;20509;-68
2021/09/10 03:37:35;;;;;;;16.17;10.45;;;19.70;99.90;;;18.91;100.00;100103.66;5027064;28;20025;-68
2021/09/10 03:40:04;;;;;;;18.83;11.13;;;19.70;99.90;;;18.90;100.00;100096.44;5027304;28;20103;-68
2021/09/10 03:42:34;;;;;;;18.10;10.90;;;19.70;99.90;;;18.90;100.00;100097.28;5028255;28;20127;-68
2021/09/10 03:45:02;;;;;;;15.25;11.02;;;19.70;99.90;;;18.88;100.00;100098.63;5027214;28;20048;-68
2021/09/10 03:47:29;;;;;;;17.33;11.00;;;19.70;99.90;;;18.88;100.00;100093.94;5027409;28;20807;-68
2021/09/10 03:49:56;;;;;;;15.93;10.98;;;19.60;99.90;;;18.84;100.00;100095.53;5027210;28;20091;-68
2021/09/10 03:52:24;;;;;;;16.25;10.95;;;19.60;99.90;;;18.84;100.00;100086.41;5027283;28;20049;-68
2021/09/10 03:54:51;;;;;;;18.63;10.52;;;19.60;99.90;;;18.83;100.00;100096.63;5026792;28;20132;-68
2021/09/10 03:57:18;;;;;;;20.63;11.82;;;19.60;99.90;;;18.83;100.00;100096.63;5027125;28;20045;-68
2021/09/10 03:59:47;;;;;;;18.60;12.20;;;19.60;99.90;;;18.83;100.00;100106.78;5027043;28;20092;-68
2021/09/10 04:02:15;;;;;;;17.85;11.48;;;19.60;99.90;;;18.85;100.00;100104.63;5026879;28;20037;-71
2021/09/10 04:04:43;;;;;;;17.00;11.73;;;19.50;99.90;;;18.83;100.00;100106.78;5026742;28;20080;-70
2021/09/10 04:07:13;;;;;;;15.05;10.63;;;19.60;99.90;;;18.81;100.00;100098.78;5027072;28;20052;-71
2021/09/10 04:09:40;;;;;;;15.70;11.38;;;19.50;99.90;;;18.81;100.00;100108.97;5026965;28;20509;-70
2021/09/10 04:12:08;;;;;;;17.58;11.80;;;19.50;99.90;;;18.81;100.00;100114.47;5029418;28;20049;-71
2021/09/10 04:14:35;;;;;;;19.88;11.73;;;19.50;99.90;;;18.80;100.00;100110.03;5031036;28;20124;-71
2021/09/10 04:17:04;;;;;;;18.35;11.13;;;19.50;99.90;;;18.81;100.00;100114.47;5031114;28;20880;-70
2021/09/10 04:19:31;;;;;;;15.80;10.43;;;19.50;99.90;;;18.79;100.00;100105.59;5030836;28;20095;-75
2021/09/10 04:21:59;;;;;;;18.05;11.48;;;19.50;99.90;;;18.78;100.00;100113.03;5030546;28;20050;-68
2021/09/10 04:24:26;;;;;;;18.40;11.98;;;19.50;99.90;;;18.78;100.00;100112.22;5031234;28;20547;-68
2021/09/10 04:26:53;;;;;;;17.02;12.07;;;19.50;99.90;;;18.76;100.00;100106.94;5030677;28;20045;-68
2021/09/10 04:29:21;;;;;;;21.02;12.32;;;19.50;99.90;;;18.76;100.00;100102.25;5030823;28;20053;-68
2021/09/10 04:31:48;;;;;;;17.67;12.82;;;19.50;99.90;;;18.76;100.00;100113.28;5045374;28;20787;-68
2021/09/10 04:34:17;;;;;;;15.88;12.05;;;19.50;99.90;;;18.76;100.00;100115.22;5031290;28;20049;-68
2021/09/10 04:36:44;;;;;;;18.13;12.00;;;19.50;99.90;;;18.76;100.00;100112.44;5030683;28;20053;-69
2021/09/10 04:39:11;;;;;;;19.23;12.55;;;19.50;99.90;;;18.73;100.00;100105.53;5029118;28;20045;-68
2021/09/10 04:41:39;;;;;;;18.67;11.98;;;19.50;99.90;;;18.71;100.00;100104.91;5030235;28;20049;-68
2021/09/10 04:44:06;;;;;;;23.20;12.65;;;19.50;99.90;;;18.72;100.00;100106.59;5031154;28;20104;-68
2021/09/10 04:46:33;;;;;;;17.77;12.40;;;19.50;99.90;;;18.69;100.00;100104.31;5030368;28;20824;-69
2021/09/10 04:49:01;;;;;;;17.50;11.75;;;19.50;99.90;;;18.70;100.00;100103.25;5030462;28;20053;-68
2021/09/10 04:51:29;;;;;;;17.92;12.80;;;19.50;99.90;;;18.67;100.00;100100.97;5029857;28;20124;-68
2021/09/10 04:53:57;;;;;;;20.85;12.25;;;19.40;99.90;;;18.69;100.00;100109.84;5030799;28;20065;-68
2021/09/10 04:56:25;;;;;;;16.73;12.27;;;19.40;99.90;;;18.67;100.00;100102.91;5028150;28;20059;-68
2021/09/10 04:58:52;;;;;;;20.63;12.38;;;19.40;99.90;;;18.68;100.00;100110.09;5029705;28;20200;-69
2021/09/10 05:01:19;;;;;;;18.52;12.00;;;19.40;99.90;;;18.67;100.00;100112.00;5028972;28;20095;-68
2021/09/10 05:03:47;;;;;;;17.52;11.15;;;19.40;99.90;;;18.69;100.00;100107.06;5030439;28;20279;-65
2021/09/10 05:06:15;;;;;;;16.92;12.32;;;19.40;99.90;;;18.69;100.00;100118.09;5029804;28;20045;-66
2021/09/10 05:08:43;;;;;;;16.38;11.93;;;19.40;99.90;;;18.69;100.00;100118.09;5029401;28;20466;-66
2021/09/10 05:11:11;;;;;;;17.42;11.68;;;19.40;99.90;;;18.69;100.00;100123.63;5028927;28;20128;-66
2021/09/10 05:13:38;;;;;;;20.02;12.48;;;19.40;99.90;;;18.69;100.00;100120.03;5029693;28;20046;-65
2021/09/10 05:16:06;;;;;;;18.45;12.85;;;19.50;99.90;;;18.69;100.00;100126.38;5029464;28;20041;-66
2021/09/10 05:18:33;;;;;;;19.63;12.50;;;19.50;99.90;;;18.67;100.00;100125.78;5029228;28;20835;-66
2021/09/10 05:21:00;;;;;;;18.00;12.27;;;19.50;99.90;;;18.69;100.00;100129.13;5028414;28;20127;-66
2021/09/10 05:23:28;;;;;;;17.80;12.32;;;19.50;99.90;;;18.69;100.00;100126.38;5029423;28;20529;-66
2021/09/10 05:25:56;;;;;;;17.00;12.10;;;19.50;99.90;;;18.71;100.00;100138.00;5044615;28;20037;-66
2021/09/10 05:28:24;;;;;;;18.77;11.75;;;19.60;99.90;;;18.69;100.00;100140.16;5047576;28;20052;-66
2021/09/10 05:30:51;;;;;;;24.92;12.80;;;19.60;99.90;;;18.70;100.00;100147.34;5048608;28;20087;-66
2021/09/10 05:33:19;;;;;;;15.05;11.52;;;19.60;99.90;;;18.69;100.00;100142.91;5040601;28;20072;-66
2021/09/10 05:35:46;;;;;;;17.85;12.73;;;19.60;99.90;;;18.72;100.00;100142.44;5029144;28;20081;-65
2021/09/10 05:38:14;;;;;;;16.35;11.82;;;19.60;99.90;;;18.73;100.00;100140.50;5027629;28;20045;-65
2021/09/10 05:40:41;;;;;;;16.52;11.68;;;19.70;99.90;;;18.73;100.00;100146.88;5028631;28;20069;-65
2021/09/10 05:43:10;;;;;;;16.83;12.85;;;19.70;99.90;;;18.74;100.00;100148.53;5030530;28;20049;-65
2021/09/10 05:45:38;;;;;;;18.20;12.07;;;19.70;99.90;;;18.75;100.00;100147.47;5028927;28;20134;-65
2021/09/10 05:48:06;;;;;;;17.15;12.18;;;19.70;99.90;;;18.73;100.00;100149.63;5028982;28;20099;-65
2021/09/10 05:50:33;;;;;;;17.00;12.30;;;19.80;99.90;;;18.74;100.00;100154.03;5029023;28;20041;-65
2021/09/10 05:53:01;;;;;;;18.27;12.85;;;19.70;99.90;;;18.75;100.00;100150.22;5030525;28;20045;-65
2021/09/10 05:55:28;;;;;;;20.75;12.07;;;19.70;99.90;;;18.74;100.00;100156.81;5028295;28;20041;-65
2021/09/10 05:57:56;;;;;;;21.17;12.43;;;19.70;99.90;;;18.76;100.00;100157.38;5028818;28;20501;-67
2021/09/10 06:00:24;;;;;;;20.73;12.63;;;19.70;99.90;;;18.75;100.00;100157.63;5028740;28;20148;-67
2021/09/10 06:02:51;;;;;;;17.27;12.05;;;19.70;99.90;;;18.78;100.00;100162.66;5029693;28;20060;-67
2021/09/10 06:05:19;;;;;;;18.42;12.57;;;19.80;99.90;;;18.80;100.00;100162.41;5028499;28;20042;-67
2021/09/10 06:07:46;;;;;;;19.08;12.80;;;20.00;99.90;;;18.82;100.00;100163.03;5028506;28;20111;-66
2021/09/10 06:10:14;;;;;;;20.70;12.70;;;20.10;99.90;;;18.84;100.00;100161.69;5028638;28;20045;-67
2021/09/10 06:12:41;;;;;;;20.23;13.07;;;20.20;99.90;;;18.88;100.00;100164.78;5028930;28;20131;-67
2021/09/10 06:15:11;;;;;;;23.45;14.30;;;20.30;99.90;;;18.90;100.00;100168.97;5028427;28;20119;-67
2021/09/10 06:17:39;;;;;;;20.25;13.27;;;20.40;99.90;;;18.93;100.00;100179.50;5028281;28;20572;-67
2021/09/10 06:20:10;;;;;;;22.20;14.00;;;20.40;99.90;;;18.99;100.00;100182.38;5028277;28;20099;-67
2021/09/10 06:22:38;;;;;;;19.90;12.73;;;20.50;99.90;;;19.03;100.00;100178.03;5028921;28;20049;-67
2021/09/10 06:25:09;;;;;;;22.00;12.98;;;20.60;99.90;;;19.08;100.00;100187.22;5039423;28;20055;-67
2021/09/10 06:27:37;;;;;;;16.60;11.77;;;20.80;99.90;;;19.13;100.00;100184.56;5037374;28;20055;-67
2021/09/10 06:30:07;;;;;;;18.75;13.10;;;20.90;99.90;;;19.17;100.00;100189.56;5047872;28;20047;-67
2021/09/10 06:32:35;;;;;;;18.30;13.18;;;21.00;99.90;;;19.22;100.00;100192.41;5044112;28;20050;-67
2021/09/10 06:35:05;;;;;;;22.75;13.70;;;21.00;99.90;;;19.24;100.00;100191.06;5027938;28;20046;-67
2021/09/10 06:37:33;;;;;;;19.98;13.18;;;21.00;99.90;;;19.27;100.00;100198.03;5027738;28;20057;-67
2021/09/10 06:40:00;;;;;;;21.92;13.38;;;21.10;99.90;;;19.31;100.00;100190.91;5027758;28;20921;-66
2021/09/10 06:42:27;;;;;;;19.33;12.27;;;21.10;99.90;;;19.33;100.00;100199.78;5026484;28;20073;-67
2021/09/10 06:44:55;;;;;;;18.88;12.27;;;21.20;99.90;;;19.36;100.00;100202.03;5027378;28;20103;-67
2021/09/10 06:47:22;;;;;;;20.67;13.35;;;21.20;99.90;;;19.38;100.00;100208.16;5038575;28;20049;-67
2021/09/10 06:49:50;;;;;;;21.95;12.45;;;21.20;99.90;;;19.40;100.00;100205.97;5042155;28;20508;-67
2021/09/10 06:52:19;;;;;;;17.40;11.82;;;21.10;99.90;;;19.43;100.00;100213.75;5041697;28;20953;-66
2021/09/10 06:54:46;;;;;;;16.00;11.20;;;21.10;99.90;;;19.43;100.00;100205.47;5029392;28;20038;-67
2021/09/10 06:57:13;;;;;;;16.20;11.82;;;21.10;99.90;;;19.45;100.00;100214.31;5036126;28;20602;-67
2021/09/10 06:59:41;;;;;;;20.08;10.63;;;21.20;99.90;;;19.48;100.00;100211.06;5033065;28;20505;-67
2021/09/10 07:02:08;;;;;;;18.35;11.50;;;21.20;99.90;;;19.50;100.00;100206.13;5039539;28;20037;-67
2021/09/10 07:04:36;;;;;;;16.17;11.48;;;21.20;99.90;;;19.53;100.00;100208.41;5037870;28;20508;-67
2021/09/10 07:07:04;;;;;;;18.10;11.23;;;21.40;99.90;;;19.57;100.00;100210.63;5047341;28;20059;-67
2021/09/10 07:09:34;;;;;;;21.95;11.02;;;21.50;99.90;;;19.60;100.00;100210.97;5046019;28;20120;-67
2021/09/10 07:12:04;;;;;;;19.85;10.52;;;21.70;99.90;;;19.66;100.00;100209.97;5046920;28;20528;-67
2021/09/10 07:14:32;;;;;;;14.30;9.88;;;21.90;99.90;;;19.73;100.00;100215.34;5028289;28;20060;-67
2021/09/10 07:17:00;;;;;;;21.10;10.30;;;22.00;99.90;;;19.78;100.00;100212.69;5027097;28;20517;-67
2021/09/10 07:19:27;;;;;;;17.63;10.18;;;22.10;99.90;;;19.85;100.00;100215.25;5027175;28;20045;-67
2021/09/10 07:21:54;;;;;;;13.48;9.32;;;22.30;99.90;;;19.90;100.00;100213.41;5026769;28;20045;-67
2021/09/10 07:24:22;;;;;;;14.35;8.60;;;22.30;99.90;;;19.95;100.00;100220.09;5026848;28;20037;-67
2021/09/10 07:26:52;;;;;;;14.05;9.10;;;22.30;99.90;;;19.97;100.00;100220.66;5027340;28;20049;-67
2021/09/10 07:29:20;;;;;;;14.80;8.23;;;22.40;99.90;;;20.02;100.00;100226.28;5027374;28;20041;-67
2021/09/10 07:31:48;;;;;;;16.63;9.43;;;22.40;99.90;;;20.06;100.00;100227.44;5027442;28;20037;-67
2021/09/10 07:34:15;;;;;;;10.57;7.75;;;22.50;99.90;;;20.13;100.00;100222.56;5028686;28;20045;-66
2021/09/10 07:36:48;;;;;;;12.35;8.13;;;22.60;99.90;;;20.23;100.00;100224.63;5027870;28;20076;-67
2021/09/10 07:39:17;;;;;;;12.93;8.27;;;22.70;99.90;;;20.28;100.00;100217.25;5027708;28;20049;-67
2021/09/10 07:41:45;;;;;;;10.30;7.03;;;22.80;99.70;;;20.31;100.00;100225.03;5027404;28;20051;-67
2021/09/10 07:44:16;;;;;;;11.68;6.53;;;22.90;98.40;;;20.35;100.00;100224.50;5026726;28;20103;-67
2021/09/10 07:46:44;;;;;;;13.68;7.57;;;22.90;99.30;;;20.39;100.00;100223.75;5027447;28;20037;-67
2021/09/10 07:49:12;;;;;;;15.95;8.10;;;22.90;99.20;;;20.39;100.00;100222.88;5027296;28;20473;-67
2021/09/10 07:51:40;;;;;;;12.50;7.18;;;22.90;98.80;;;20.38;100.00;100216.53;5026887;28;20049;-67
2021/09/10 07:54:08;;;;;;;9.77;6.85;;;22.90;98.90;;;20.41;100.00;100215.16;5028079;28;20421;-68
2021/09/10 07:56:35;;;;;;;10.35;6.28;;;22.90;98.60;;;20.40;100.00;100219.88;5027252;28;20041;-68
2021/09/10 07:59:02;;;;;;;16.42;7.35;;;22.90;98.10;;;20.41;100.00;100221.56;5027158;28;20049;-67
2021/09/10 08:01:31;;;;;;;9.52;6.35;;;22.80;98.10;;;20.48;100.00;100224.09;5025303;28;20472;-67
2021/09/10 08:03:58;;;;;;;9.15;6.13;;;22.90;98.50;;;20.60;100.00;100222.09;5027526;28;20056;-67
2021/09/10 08:06:26;;;;;;;13.65;6.70;;;23.00;98.50;;;20.68;100.00;100226.34;5027189;28;20702;-68
2021/09/10 08:08:53;;;;;;;9.25;5.90;;;23.10;98.40;;;20.72;100.00;100234.94;5025821;28;20148;-68
2021/09/10 08:11:21;;;;;;;8.40;5.20;;;23.20;97.60;;;20.73;100.00;100234.66;5026844;28;20053;-67
2021/09/10 08:13:48;;;;;;;8.25;5.35;;;23.20;97.60;;;20.78;100.00;100236.66;5026313;28;20052;-67
2021/09/10 08:16:15;;;;;;;12.60;6.53;;;23.30;97.40;;;20.79;100.00;100238.31;5027007;28;20199;-67
2021/09/10 08:18:44;;;;;;;10.27;6.13;;;23.30;96.60;;;20.79;100.00;100230.03;5027257;28;20072;-67
2021/09/10 08:21:11;;;;;;;10.13;5.97;;;23.30;96.20;;;20.80;100.00;100231.72;5026724;28;20509;-67
2021/09/10 08:23:38;;;;;;;9.00;5.60;;;23.30;96.90;;;20.81;100.00;100233.38;5026470;28;20049;-67
2021/09/10 08:26:06;;;;;;;8.30;5.10;;;23.40;96.90;;;20.82;100.00;100238.66;5023793;28;20565;-67
2021/09/10 08:28:33;;;;;;;11.80;5.80;;;23.40;95.20;;;20.89;100.00;100241.22;5022176;28;20132;-67
2021/09/10 08:31:00;;;;;;;9.20;5.13;;;23.50;96.00;;;20.94;100.00;100246.78;5013121;28;20116;-67
2021/09/10 08:33:28;;;;;;;11.68;5.30;;;23.60;96.60;;;20.92;100.00;100242.63;5018687;28;20576;-67
2021/09/10 08:35:57;;;;;;;10.32;5.43;;;23.60;95.10;;;20.94;100.00;100252.31;5014508;28;20052;-67
2021/09/10 08:38:24;;;;;;;8.38;5.38;;;23.60;94.60;;;20.97;100.00;100251.81;5023187;28;20092;-67
2021/09/10 08:40:57;;;;;;;7.85;4.65;;;23.60;94.00;;;20.98;100.00;100250.72;5022935;28;20038;-67
2021/09/10 08:43:25;;;;;;;11.75;5.25;;;23.60;94.60;;;20.98;100.00;100256.28;5020686;28;20045;-67
2021/09/10 08:45:56;;;;;;;8.15;4.68;;;23.60;94.90;;;21.03;100.00;100261.84;5021529;28;20464;-67
2021/09/10 08:48:24;;;;;;;9.45;5.25;;;23.60;94.60;;;21.03;100.00;100259.06;5024429;28;20045;-67
2021/09/10 08:50:52;;;;;;;10.85;5.13;;;23.60;94.60;;;21.03;100.00;100256.31;5024684;28;20037;-67
2021/09/10 08:53:20;;;;;;;9.10;5.30;;;23.50;94.70;;;21.05;100.00;100259.63;5024839;28;20041;-67
2021/09/10 08:55:48;;;;;;;8.85;5.07;;;23.50;94.90;;;21.07;100.00;100262.97;5016390;28;20042;-67
2021/09/10 08:58:15;;;;;;;7.03;4.93;;;23.40;94.40;;;21.08;100.00;100259.13;5025550;28;20206;-67
2021/09/10 09:00:42;;;;;;;9.45;4.50;;;23.40;94.50;;;21.09;100.00;100258.06;5020441;28;20042;-67
2021/09/10 09:03:12;;;;;;;8.93;4.68;;;23.40;94.30;;;21.12;100.00;100264.16;5028713;28;20053;-67
2021/09/10 09:05:40;;;;;;;8.95;4.38;;;23.40;93.20;;;21.11;100.00;100268.84;5017042;28;20116;-67
2021/09/10 09:08:11;;;;;;;9.15;4.78;;;23.50;94.00;;;21.20;100.00;100267.28;5019392;28;20046;-67
2021/09/10 09:11:00;;;;;;;5.40;4.05;;;23.60;94.00;;;21.23;100.00;100266.75;5019190;28;20056;-67
2021/09/10 09:13:30;;;;;;;8.45;4.00;;;23.60;92.70;;;21.29;100.00;100265.69;5022940;28;20561;-67
2021/09/10 09:16:22;;;;;;;10.75;5.07;;;23.60;93.90;;;21.33;100.00;100266.03;5022291;28;20072;-67
2021/09/10 09:18:51;;;;;;;10.52;4.32;;;23.70;94.10;;;21.27;100.00;100270.66;5020054;28;20136;-67
2021/09/10 09:21:25;;;;;;;7.28;3.63;;;23.70;91.80;;;21.24;100.00;100273.13;5026347;28;20041;-67
2021/09/10 09:23:54;;;;;;;7.50;3.97;;;23.60;93.20;;;21.18;100.00;100275.00;5027203;28;20046;-67
2021/09/10 09:26:27;;;;;;;7.38;4.38;;;23.60;93.80;;;21.16;100.00;100279.13;5029296;28;20588;-67
2021/09/10 09:29:07;;;;;;;9.13;3.45;;;23.50;93.30;;;21.13;100.00;100276.88;5025845;28;20132;-67
2021/09/10 09:31:36;;;;;;;9.63;4.72;;;23.50;92.90;;;21.17;100.00;100278.03;5022793;28;20053;-67
2021/09/10 09:34:04;;;;;;;6.88;4.50;;;23.50;93.30;;;21.13;100.00;100283.25;5028240;28;20055;-67
2021/09/10 09:36:32;;;;;;;6.82;4.10;;;23.50;92.50;;;21.11;99.86;100288.19;5023408;28;20053;-67
2021/09/10 09:39:08;;;;;;;8.32;4.57;;;23.50;91.80;;;21.14;100.00;100284.09;5018811;28;20139;-67
2021/09/10 09:41:42;;;;;;;9.80;4.50;;;23.50;92.90;;;21.21;100.00;100290.25;5016528;28;20092;-67
2021/09/10 09:44:13;;;;;;;8.63;4.72;;;23.60;93.90;;;21.21;100.00;100288.31;5025731;28;20124;-68
2021/09/10 09:46:44;;;;;;;10.85;5.78;;;23.70;92.70;;;21.20;100.00;100288.59;5017345;28;20815;-67
2021/09/10 09:49:16;;;;;;;11.35;5.72;;;23.60;92.50;;;21.24;100.00;100292.50;5028771;28;20041;-67
2021/09/10 09:51:59;;;;;;;10.45;5.50;;;23.70;92.60;;;21.30;100.00;100288.69;5026620;28;20048;-67
2021/09/10 09:54:27;;;;;;;9.60;6.57;;;23.70;92.00;;;21.34;100.00;100289.81;5028897;28;20508;-67
2021/09/10 09:56:56;;;;;;;10.95;5.22;;;23.70;92.60;;;21.36;100.00;100298.72;5025099;28;20041;-67
2021/09/10 09:59:23;;;;;;;12.77;5.55;;;23.70;92.70;;;21.34;100.00;100303.66;5028538;28;20128;-66